Archival Weather

Half Moon Bay

Half Moon Bay, California (KHAF)

Report from: Thursday, September 21, 2023 7:55 AM PDT
Current time: Sunday, July 14, 2024 3:06 AM PDT

Current weather – Weather history – Daily summaries
Weather forecast

Present weatherHaze
Temperature13.0°C (55.4°F)
Dew point10.0°C (50.0°F)
Winds Calm
Visibility3 mi. (4.8 km)
Clouds Sky clear
Altimeter29.89 in.Hg (1012 mB)
Relative humidity82 %
Density altitude-28 ft. (-8 m)
Remarks Fully automated report
Automated weather observing station with precipitation discriminator
Flight conditions Marginal Visual Meteorological Conditions
Raw dataKHAF 211455Z AUTO 00000KT 3SM HZ CLR 13/10 A2989 RMK AO2
An error has occurred. This application may no longer respond until reloaded. Reload 🗙